sensor_id;sensor_type;location;lat;lon;timestamp;P1;durP1;ratioP1;P2;durP2;ratioP2
4831;SDS011;2430;51.322;7.864;2023-03-14T00:00:48;1.10;;;0.87;;
4831;SDS011;2430;51.322;7.864;2023-03-14T00:03:14;1.37;;;1.10;;
4831;SDS011;2430;51.322;7.864;2023-03-14T00:05:42;1.20;;;1.10;;
4831;SDS011;2430;51.322;7.864;2023-03-14T00:08:08;4.60;;;1.20;;
4831;SDS011;2430;51.322;7.864;2023-03-14T00:10:35;1.37;;;1.03;;
4831;SDS011;2430;51.322;7.864;2023-03-14T00:13:01;3.00;;;1.10;;
4831;SDS011;2430;51.322;7.864;2023-03-14T00:15:28;1.50;;;1.27;;
4831;SDS011;2430;51.322;7.864;2023-03-14T00:17:54;1.30;;;0.87;;
4831;SDS011;2430;51.322;7.864;2023-03-14T00:20:20;1.30;;;1.20;;
4831;SDS011;2430;51.322;7.864;2023-03-14T00:22:48;5.77;;;1.03;;
4831;SDS011;2430;51.322;7.864;2023-03-14T00:25:15;4.87;;;1.20;;
4831;SDS011;2430;51.322;7.864;2023-03-14T00:27:41;4.10;;;1.53;;
4831;SDS011;2430;51.322;7.864;2023-03-14T00:30:08;1.40;;;1.00;;
4831;SDS011;2430;51.322;7.864;2023-03-14T00:32:34;1.17;;;1.07;;
4831;SDS011;2430;51.322;7.864;2023-03-14T00:35:01;1.20;;;0.80;;
4831;SDS011;2430;51.322;7.864;2023-03-14T00:37:28;0.80;;;0.70;;
4831;SDS011;2430;51.322;7.864;2023-03-14T00:39:56;2.57;;;0.90;;
4831;SDS011;2430;51.322;7.864;2023-03-14T00:42:23;2.03;;;1.53;;
4831;SDS011;2430;51.322;7.864;2023-03-14T00:44:50;1.57;;;0.90;;
4831;SDS011;2430;51.322;7.864;2023-03-14T00:47:16;0.90;;;0.70;;
4831;SDS011;2430;51.322;7.864;2023-03-14T00:49:42;2.50;;;1.00;;
4831;SDS011;2430;51.322;7.864;2023-03-14T00:52:09;3.80;;;1.47;;
4831;SDS011;2430;51.322;7.864;2023-03-14T00:54:35;1.70;;;1.03;;
4831;SDS011;2430;51.322;7.864;2023-03-14T00:57:03;1.00;;;0.90;;
4831;SDS011;2430;51.322;7.864;2023-03-14T00:59:29;2.20;;;1.27;;
4831;SDS011;2430;51.322;7.864;2023-03-14T01:01:56;2.63;;;1.10;;
4831;SDS011;2430;51.322;7.864;2023-03-14T01:04:22;8.53;;;1.90;;
4831;SDS011;2430;51.322;7.864;2023-03-14T01:06:49;1.00;;;0.90;;
4831;SDS011;2430;51.322;7.864;2023-03-14T01:09:15;2.90;;;1.10;;
4831;SDS011;2430;51.322;7.864;2023-03-14T01:11:43;4.40;;;1.10;;
4831;SDS011;2430;51.322;7.864;2023-03-14T01:14:13;1.07;;;0.90;;
4831;SDS011;2430;51.322;7.864;2023-03-14T01:16:39;1.07;;;0.97;;
4831;SDS011;2430;51.322;7.864;2023-03-14T01:19:06;1.50;;;0.90;;
4831;SDS011;2430;51.322;7.864;2023-03-14T01:21:32;3.13;;;1.00;;
4831;SDS011;2430;51.322;7.864;2023-03-14T01:24:00;2.50;;;1.30;;
4831;SDS011;2430;51.322;7.864;2023-03-14T01:26:28;8.23;;;1.67;;
4831;SDS011;2430;51.322;7.864;2023-03-14T01:28:55;3.77;;;1.50;;
4831;SDS011;2430;51.322;7.864;2023-03-14T01:31:23;3.90;;;1.10;;
4831;SDS011;2430;51.322;7.864;2023-03-14T01:33:50;1.83;;;0.97;;
4831;SDS011;2430;51.322;7.864;2023-03-14T01:36:17;1.23;;;1.13;;
4831;SDS011;2430;51.322;7.864;2023-03-14T01:38:44;4.07;;;1.30;;
4831;SDS011;2430;51.322;7.864;2023-03-14T01:41:13;0.90;;;0.83;;
4831;SDS011;2430;51.322;7.864;2023-03-14T01:43:39;4.83;;;1.80;;
4831;SDS011;2430;51.322;7.864;2023-03-14T01:48:50;1.07;;;0.97;;
4831;SDS011;2430;51.322;7.864;2023-03-14T01:51:19;2.40;;;1.00;;
4831;SDS011;2430;51.322;7.864;2023-03-14T01:53:47;2.60;;;1.30;;
4831;SDS011;2430;51.322;7.864;2023-03-14T01:56:15;2.23;;;1.07;;
4831;SDS011;2430;51.322;7.864;2023-03-14T01:58:43;1.00;;;0.90;;
4831;SDS011;2430;51.322;7.864;2023-03-14T02:01:11;1.33;;;1.23;;
4831;SDS011;2430;51.322;7.864;2023-03-14T02:03:38;3.70;;;1.27;;
4831;SDS011;2430;51.322;7.864;2023-03-14T02:06:11;1.40;;;1.13;;
4831;SDS011;2430;51.322;7.864;2023-03-14T02:08:40;0.80;;;0.70;;
4831;SDS011;2430;51.322;7.864;2023-03-14T02:11:06;1.03;;;0.93;;
4831;SDS011;2430;51.322;7.864;2023-03-14T02:13:33;0.90;;;0.67;;
4831;SDS011;2430;51.322;7.864;2023-03-14T02:16:00;0.70;;;0.70;;
4831;SDS011;2430;51.322;7.864;2023-03-14T02:18:26;1.73;;;0.90;;
4831;SDS011;2430;51.322;7.864;2023-03-14T02:20:53;0.83;;;0.77;;
4831;SDS011;2430;51.322;7.864;2023-03-14T02:23:23;1.10;;;0.90;;
4831;SDS011;2430;51.322;7.864;2023-03-14T02:25:52;1.70;;;0.87;;
4831;SDS011;2430;51.322;7.864;2023-03-14T02:28:23;0.90;;;0.80;;
4831;SDS011;2430;51.322;7.864;2023-03-14T02:30:49;2.30;;;0.80;;
4831;SDS011;2430;51.322;7.864;2023-03-14T02:33:17;1.00;;;0.90;;
4831;SDS011;2430;51.322;7.864;2023-03-14T02:35:45;1.00;;;0.80;;
4831;SDS011;2430;51.322;7.864;2023-03-14T02:38:15;0.70;;;0.63;;
4831;SDS011;2430;51.322;7.864;2023-03-14T02:40:43;5.13;;;0.90;;
4831;SDS011;2430;51.322;7.864;2023-03-14T02:43:09;1.83;;;1.00;;
4831;SDS011;2430;51.322;7.864;2023-03-14T02:45:44;0.80;;;0.70;;
4831;SDS011;2430;51.322;7.864;2023-03-14T02:48:14;0.70;;;0.60;;
4831;SDS011;2430;51.322;7.864;2023-03-14T02:50:41;1.40;;;0.97;;
4831;SDS011;2430;51.322;7.864;2023-03-14T02:53:08;1.00;;;0.73;;
4831;SDS011;2430;51.322;7.864;2023-03-14T02:55:34;1.00;;;0.63;;
4831;SDS011;2430;51.322;7.864;2023-03-14T02:58:01;4.93;;;1.07;;
4831;SDS011;2430;51.322;7.864;2023-03-14T03:00:27;4.00;;;0.80;;
4831;SDS011;2430;51.322;7.864;2023-03-14T03:02:57;0.90;;;0.77;;
4831;SDS011;2430;51.322;7.864;2023-03-14T03:05:23;1.20;;;0.63;;
4831;SDS011;2430;51.322;7.864;2023-03-14T03:07:49;1.83;;;1.13;;
4831;SDS011;2430;51.322;7.864;2023-03-14T03:10:16;3.70;;;1.00;;
4831;SDS011;2430;51.322;7.864;2023-03-14T03:12:42;1.63;;;0.93;;
4831;SDS011;2430;51.322;7.864;2023-03-14T03:15:09;1.93;;;1.07;;
4831;SDS011;2430;51.322;7.864;2023-03-14T03:17:36;3.23;;;1.47;;
4831;SDS011;2430;51.322;7.864;2023-03-14T03:20:04;0.80;;;0.60;;
4831;SDS011;2430;51.322;7.864;2023-03-14T03:22:33;4.50;;;0.90;;
4831;SDS011;2430;51.322;7.864;2023-03-14T03:25:00;1.00;;;1.00;;
4831;SDS011;2430;51.322;7.864;2023-03-14T03:27:26;1.33;;;1.10;;
4831;SDS011;2430;51.322;7.864;2023-03-14T03:29:52;1.47;;;1.10;;
4831;SDS011;2430;51.322;7.864;2023-03-14T03:32:19;1.17;;;0.90;;
4831;SDS011;2430;51.322;7.864;2023-03-14T03:34:45;1.23;;;1.13;;
4831;SDS011;2430;51.322;7.864;2023-03-14T03:37:16;0.97;;;0.97;;
4831;SDS011;2430;51.322;7.864;2023-03-14T03:39:43;1.73;;;1.63;;
4831;SDS011;2430;51.322;7.864;2023-03-14T03:42:09;1.73;;;1.00;;
4831;SDS011;2430;51.322;7.864;2023-03-14T03:44:35;2.30;;;0.90;;
4831;SDS011;2430;51.322;7.864;2023-03-14T03:47:02;0.80;;;0.80;;
4831;SDS011;2430;51.322;7.864;2023-03-14T03:49:29;0.90;;;0.80;;
4831;SDS011;2430;51.322;7.864;2023-03-14T03:51:55;1.10;;;1.00;;
4831;SDS011;2430;51.322;7.864;2023-03-14T03:54:23;2.23;;;1.20;;
4831;SDS011;2430;51.322;7.864;2023-03-14T03:56:53;1.90;;;1.00;;
4831;SDS011;2430;51.322;7.864;2023-03-14T03:59:20;2.10;;;1.33;;
4831;SDS011;2430;51.322;7.864;2023-03-14T04:01:46;1.83;;;1.00;;
4831;SDS011;2430;51.322;7.864;2023-03-14T04:04:13;1.23;;;1.03;;
4831;SDS011;2430;51.322;7.864;2023-03-14T04:06:40;1.30;;;1.20;;
4831;SDS011;2430;51.322;7.864;2023-03-14T04:09:07;1.33;;;1.17;;
4831;SDS011;2430;51.322;7.864;2023-03-14T04:11:35;1.80;;;1.23;;
4831;SDS011;2430;51.322;7.864;2023-03-14T04:14:02;1.17;;;1.07;;
4831;SDS011;2430;51.322;7.864;2023-03-14T04:16:28;5.13;;;2.37;;
4831;SDS011;2430;51.322;7.864;2023-03-14T04:18:56;3.47;;;1.73;;
4831;SDS011;2430;51.322;7.864;2023-03-14T04:21:26;1.10;;;0.73;;
4831;SDS011;2430;51.322;7.864;2023-03-14T04:23:53;1.97;;;1.10;;
4831;SDS011;2430;51.322;7.864;2023-03-14T04:26:19;1.50;;;1.30;;
4831;SDS011;2430;51.322;7.864;2023-03-14T04:28:47;3.27;;;1.30;;
4831;SDS011;2430;51.322;7.864;2023-03-14T04:31:15;3.60;;;1.17;;
4831;SDS011;2430;51.322;7.864;2023-03-14T04:33:42;3.23;;;1.27;;
4831;SDS011;2430;51.322;7.864;2023-03-14T04:36:09;4.50;;;1.33;;
4831;SDS011;2430;51.322;7.864;2023-03-14T04:38:35;2.57;;;1.10;;
4831;SDS011;2430;51.322;7.864;2023-03-14T04:41:02;5.30;;;1.33;;
4831;SDS011;2430;51.322;7.864;2023-03-14T04:43:32;13.23;;;4.10;;
4831;SDS011;2430;51.322;7.864;2023-03-14T04:46:00;2.83;;;1.50;;
4831;SDS011;2430;51.322;7.864;2023-03-14T04:48:27;1.77;;;0.90;;
4831;SDS011;2430;51.322;7.864;2023-03-14T04:50:54;1.60;;;1.50;;
4831;SDS011;2430;51.322;7.864;2023-03-14T04:53:21;3.90;;;1.77;;
4831;SDS011;2430;51.322;7.864;2023-03-14T04:55:48;2.50;;;1.47;;
4831;SDS011;2430;51.322;7.864;2023-03-14T04:58:15;1.63;;;1.33;;
4831;SDS011;2430;51.322;7.864;2023-03-14T05:00:42;3.83;;;1.87;;
4831;SDS011;2430;51.322;7.864;2023-03-14T05:03:10;5.17;;;1.70;;
4831;SDS011;2430;51.322;7.864;2023-03-14T05:05:39;4.73;;;2.07;;
4831;SDS011;2430;51.322;7.864;2023-03-14T05:08:06;7.60;;;2.40;;
4831;SDS011;2430;51.322;7.864;2023-03-14T05:10:33;3.73;;;1.70;;
4831;SDS011;2430;51.322;7.864;2023-03-14T05:12:59;2.37;;;1.30;;
4831;SDS011;2430;51.322;7.864;2023-03-14T05:15:25;8.97;;;1.60;;
4831;SDS011;2430;51.322;7.864;2023-03-14T05:17:52;2.00;;;1.80;;
4831;SDS011;2430;51.322;7.864;2023-03-14T05:20:24;3.23;;;1.37;;
4831;SDS011;2430;51.322;7.864;2023-03-14T05:22:51;2.13;;;1.30;;
4831;SDS011;2430;51.322;7.864;2023-03-14T05:25:17;2.97;;;2.60;;
4831;SDS011;2430;51.322;7.864;2023-03-14T05:27:44;4.30;;;1.40;;
4831;SDS011;2430;51.322;7.864;2023-03-14T05:30:11;2.23;;;1.07;;
4831;SDS011;2430;51.322;7.864;2023-03-14T05:32:38;3.00;;;1.30;;
4831;SDS011;2430;51.322;7.864;2023-03-14T05:35:05;2.20;;;0.70;;
4831;SDS011;2430;51.322;7.864;2023-03-14T05:37:33;6.20;;;1.60;;
4831;SDS011;2430;51.322;7.864;2023-03-14T05:40:01;3.43;;;1.63;;
4831;SDS011;2430;51.322;7.864;2023-03-14T05:42:29;7.67;;;1.90;;
4831;SDS011;2430;51.322;7.864;2023-03-14T05:44:56;3.37;;;1.50;;
4831;SDS011;2430;51.322;7.864;2023-03-14T05:47:23;2.80;;;1.50;;
4831;SDS011;2430;51.322;7.864;2023-03-14T05:49:50;5.77;;;1.23;;
4831;SDS011;2430;51.322;7.864;2023-03-14T05:52:17;2.40;;;1.73;;
4831;SDS011;2430;51.322;7.864;2023-03-14T05:54:45;5.90;;;1.13;;
4831;SDS011;2430;51.322;7.864;2023-03-14T05:57:12;3.40;;;1.10;;
4831;SDS011;2430;51.322;7.864;2023-03-14T05:59:39;1.33;;;0.90;;
4831;SDS011;2430;51.322;7.864;2023-03-14T06:02:06;1.53;;;1.43;;
4831;SDS011;2430;51.322;7.864;2023-03-14T06:04:32;2.37;;;1.27;;
4831;SDS011;2430;51.322;7.864;2023-03-14T06:06:59;0.83;;;0.80;;
4831;SDS011;2430;51.322;7.864;2023-03-14T06:09:26;16.53;;;2.23;;
4831;SDS011;2430;51.322;7.864;2023-03-14T06:11:54;1.00;;;0.90;;
4831;SDS011;2430;51.322;7.864;2023-03-14T06:14:21;1.00;;;0.77;;
4831;SDS011;2430;51.322;7.864;2023-03-14T06:16:47;3.53;;;0.83;;
4831;SDS011;2430;51.322;7.864;2023-03-14T06:19:16;2.23;;;1.00;;
4831;SDS011;2430;51.322;7.864;2023-03-14T06:21:43;0.90;;;0.73;;
4831;SDS011;2430;51.322;7.864;2023-03-14T06:24:10;0.70;;;0.60;;
4831;SDS011;2430;51.322;7.864;2023-03-14T06:26:36;0.70;;;0.70;;
4831;SDS011;2430;51.322;7.864;2023-03-14T06:29:04;4.70;;;1.93;;
4831;SDS011;2430;51.322;7.864;2023-03-14T06:31:31;2.63;;;1.00;;
4831;SDS011;2430;51.322;7.864;2023-03-14T06:33:57;1.10;;;0.77;;
4831;SDS011;2430;51.322;7.864;2023-03-14T06:36:24;1.40;;;0.83;;
4831;SDS011;2430;51.322;7.864;2023-03-14T06:38:50;0.80;;;0.77;;
4831;SDS011;2430;51.322;7.864;2023-03-14T06:41:17;0.70;;;0.70;;
4831;SDS011;2430;51.322;7.864;2023-03-14T06:43:43;0.80;;;0.77;;
4831;SDS011;2430;51.322;7.864;2023-03-14T06:46:11;5.50;;;1.30;;
4831;SDS011;2430;51.322;7.864;2023-03-14T06:48:37;2.20;;;0.90;;
4831;SDS011;2430;51.322;7.864;2023-03-14T06:51:04;0.70;;;0.70;;
4831;SDS011;2430;51.322;7.864;2023-03-14T06:53:31;2.20;;;0.80;;
4831;SDS011;2430;51.322;7.864;2023-03-14T06:55:57;2.03;;;0.90;;
4831;SDS011;2430;51.322;7.864;2023-03-14T06:58:24;1.37;;;0.90;;
4831;SDS011;2430;51.322;7.864;2023-03-14T07:00:51;2.13;;;1.60;;
4831;SDS011;2430;51.322;7.864;2023-03-14T07:03:19;0.60;;;0.60;;
4831;SDS011;2430;51.322;7.864;2023-03-14T07:05:46;0.70;;;0.70;;
4831;SDS011;2430;51.322;7.864;2023-03-14T07:08:12;0.70;;;0.60;;
4831;SDS011;2430;51.322;7.864;2023-03-14T07:10:39;0.70;;;0.60;;
4831;SDS011;2430;51.322;7.864;2023-03-14T07:13:05;0.70;;;0.60;;
4831;SDS011;2430;51.322;7.864;2023-03-14T07:15:31;0.90;;;0.60;;
4831;SDS011;2430;51.322;7.864;2023-03-14T07:17:58;0.80;;;0.70;;
4831;SDS011;2430;51.322;7.864;2023-03-14T07:20:26;0.70;;;0.60;;
4831;SDS011;2430;51.322;7.864;2023-03-14T07:22:53;0.80;;;0.63;;
4831;SDS011;2430;51.322;7.864;2023-03-14T07:25:20;0.70;;;0.60;;
4831;SDS011;2430;51.322;7.864;2023-03-14T07:27:47;0.70;;;0.60;;
4831;SDS011;2430;51.322;7.864;2023-03-14T07:30:13;0.70;;;0.63;;
4831;SDS011;2430;51.322;7.864;2023-03-14T07:32:40;0.60;;;0.60;;
4831;SDS011;2430;51.322;7.864;2023-03-14T07:35:07;1.33;;;0.60;;
4831;SDS011;2430;51.322;7.864;2023-03-14T07:37:35;0.67;;;0.60;;
4831;SDS011;2430;51.322;7.864;2023-03-14T07:40:01;0.90;;;0.70;;
4831;SDS011;2430;51.322;7.864;2023-03-14T07:42:30;0.70;;;0.60;;
4831;SDS011;2430;51.322;7.864;2023-03-14T07:44:57;2.63;;;0.70;;
4831;SDS011;2430;51.322;7.864;2023-03-14T07:47:23;2.10;;;0.70;;
4831;SDS011;2430;51.322;7.864;2023-03-14T07:49:50;0.70;;;0.60;;
4831;SDS011;2430;51.322;7.864;2023-03-14T07:52:16;0.70;;;0.70;;
4831;SDS011;2430;51.322;7.864;2023-03-14T07:54:44;1.20;;;0.77;;
4831;SDS011;2430;51.322;7.864;2023-03-14T07:57:10;5.60;;;0.97;;
4831;SDS011;2430;51.322;7.864;2023-03-14T07:59:37;0.60;;;0.60;;
4831;SDS011;2430;51.322;7.864;2023-03-14T08:02:03;0.90;;;0.60;;
4831;SDS011;2430;51.322;7.864;2023-03-14T08:04:30;0.60;;;0.53;;
4831;SDS011;2430;51.322;7.864;2023-03-14T08:06:57;0.83;;;0.77;;
4831;SDS011;2430;51.322;7.864;2023-03-14T08:09:23;1.20;;;0.93;;
4831;SDS011;2430;51.322;7.864;2023-03-14T08:11:51;0.80;;;0.60;;
4831;SDS011;2430;51.322;7.864;2023-03-14T08:14:17;0.70;;;0.60;;
4831;SDS011;2430;51.322;7.864;2023-03-14T08:16:43;0.80;;;0.70;;
4831;SDS011;2430;51.322;7.864;2023-03-14T08:19:10;0.90;;;0.60;;
4831;SDS011;2430;51.322;7.864;2023-03-14T08:21:36;0.70;;;0.63;;
4831;SDS011;2430;51.322;7.864;2023-03-14T08:24:03;0.70;;;0.60;;
4831;SDS011;2430;51.322;7.864;2023-03-14T08:26:29;0.70;;;0.50;;
4831;SDS011;2430;51.322;7.864;2023-03-14T08:28:57;0.70;;;0.60;;
4831;SDS011;2430;51.322;7.864;2023-03-14T08:31:24;0.70;;;0.50;;
4831;SDS011;2430;51.322;7.864;2023-03-14T08:33:50;0.70;;;0.70;;
4831;SDS011;2430;51.322;7.864;2023-03-14T08:36:18;0.90;;;0.60;;
4831;SDS011;2430;51.322;7.864;2023-03-14T08:38:44;0.90;;;0.70;;
4831;SDS011;2430;51.322;7.864;2023-03-14T08:41:11;2.77;;;0.60;;
4831;SDS011;2430;51.322;7.864;2023-03-14T08:43:37;0.80;;;0.70;;
4831;SDS011;2430;51.322;7.864;2023-03-14T08:46:06;1.87;;;0.73;;
4831;SDS011;2430;51.322;7.864;2023-03-14T08:48:32;0.80;;;0.60;;
4831;SDS011;2430;51.322;7.864;2023-03-14T08:51:03;0.70;;;0.60;;
4831;SDS011;2430;51.322;7.864;2023-03-14T08:53:30;1.17;;;0.90;;
4831;SDS011;2430;51.322;7.864;2023-03-14T08:55:56;1.10;;;0.70;;
4831;SDS011;2430;51.322;7.864;2023-03-14T08:58:22;0.90;;;0.63;;
4831;SDS011;2430;51.322;7.864;2023-03-14T09:00:49;0.80;;;0.60;;
4831;SDS011;2430;51.322;7.864;2023-03-14T09:03:24;0.90;;;0.60;;
4831;SDS011;2430;51.322;7.864;2023-03-14T09:05:50;0.70;;;0.60;;
4831;SDS011;2430;51.322;7.864;2023-03-14T09:08:16;0.63;;;0.60;;
4831;SDS011;2430;51.322;7.864;2023-03-14T09:10:43;0.70;;;0.67;;
4831;SDS011;2430;51.322;7.864;2023-03-14T09:13:10;0.80;;;0.70;;
4831;SDS011;2430;51.322;7.864;2023-03-14T09:15:36;0.80;;;0.73;;
4831;SDS011;2430;51.322;7.864;2023-03-14T09:18:03;0.97;;;0.70;;
4831;SDS011;2430;51.322;7.864;2023-03-14T09:20:30;1.73;;;0.70;;
4831;SDS011;2430;51.322;7.864;2023-03-14T09:22:57;0.70;;;0.60;;
4831;SDS011;2430;51.322;7.864;2023-03-14T09:25:23;0.80;;;0.70;;
4831;SDS011;2430;51.322;7.864;2023-03-14T09:27:50;0.73;;;0.60;;
4831;SDS011;2430;51.322;7.864;2023-03-14T09:30:16;0.70;;;0.70;;
4831;SDS011;2430;51.322;7.864;2023-03-14T09:32:43;1.10;;;0.80;;
4831;SDS011;2430;51.322;7.864;2023-03-14T09:35:09;0.80;;;0.60;;
4831;SDS011;2430;51.322;7.864;2023-03-14T09:37:37;0.90;;;0.70;;
4831;SDS011;2430;51.322;7.864;2023-03-14T09:40:04;0.80;;;0.70;;
4831;SDS011;2430;51.322;7.864;2023-03-14T09:42:35;0.80;;;0.80;;
4831;SDS011;2430;51.322;7.864;2023-03-14T09:45:03;0.70;;;0.60;;
4831;SDS011;2430;51.322;7.864;2023-03-14T09:47:30;0.70;;;0.60;;
4831;SDS011;2430;51.322;7.864;2023-03-14T09:49:57;0.80;;;0.70;;
4831;SDS011;2430;51.322;7.864;2023-03-14T09:52:26;0.70;;;0.60;;
4831;SDS011;2430;51.322;7.864;2023-03-14T09:54:55;0.70;;;0.60;;
4831;SDS011;2430;51.322;7.864;2023-03-14T09:57:23;0.70;;;0.60;;
4831;SDS011;2430;51.322;7.864;2023-03-14T09:59:50;0.70;;;0.60;;
4831;SDS011;2430;51.322;7.864;2023-03-14T10:02:18;0.70;;;0.60;;
4831;SDS011;2430;51.322;7.864;2023-03-14T10:04:45;1.50;;;0.90;;
4831;SDS011;2430;51.322;7.864;2023-03-14T10:07:13;1.07;;;0.80;;
4831;SDS011;2430;51.322;7.864;2023-03-14T10:09:42;0.73;;;0.63;;
4831;SDS011;2430;51.322;7.864;2023-03-14T10:12:10;0.70;;;0.60;;
4831;SDS011;2430;51.322;7.864;2023-03-14T10:14:38;0.80;;;0.70;;
4831;SDS011;2430;51.322;7.864;2023-03-14T10:17:10;1.00;;;0.73;;
4831;SDS011;2430;51.322;7.864;2023-03-14T10:19:37;0.70;;;0.70;;
4831;SDS011;2430;51.322;7.864;2023-03-14T10:22:11;1.00;;;0.80;;
4831;SDS011;2430;51.322;7.864;2023-03-14T10:24:40;0.77;;;0.70;;
4831;SDS011;2430;51.322;7.864;2023-03-14T10:27:18;0.80;;;0.80;;
4831;SDS011;2430;51.322;7.864;2023-03-14T10:29:50;0.70;;;0.60;;
4831;SDS011;2430;51.322;7.864;2023-03-14T10:32:18;1.30;;;0.90;;
4831;SDS011;2430;51.322;7.864;2023-03-14T10:34:45;0.80;;;0.60;;
4831;SDS011;2430;51.322;7.864;2023-03-14T10:37:16;0.80;;;0.80;;
4831;SDS011;2430;51.322;7.864;2023-03-14T10:39:45;0.70;;;0.60;;
4831;SDS011;2430;51.322;7.864;2023-03-14T10:42:19;0.90;;;0.70;;
4831;SDS011;2430;51.322;7.864;2023-03-14T10:44:48;1.43;;;0.80;;
4831;SDS011;2430;51.322;7.864;2023-03-14T10:47:17;1.90;;;1.27;;
4831;SDS011;2430;51.322;7.864;2023-03-14T10:49:44;1.40;;;1.13;;
4831;SDS011;2430;51.322;7.864;2023-03-14T10:52:13;2.50;;;1.80;;
4831;SDS011;2430;51.322;7.864;2023-03-14T10:54:39;0.77;;;0.70;;
4831;SDS011;2430;51.322;7.864;2023-03-14T10:57:06;1.87;;;0.90;;
4831;SDS011;2430;51.322;7.864;2023-03-14T10:59:35;2.30;;;1.63;;
4831;SDS011;2430;51.322;7.864;2023-03-14T11:02:03;0.97;;;0.90;;
4831;SDS011;2430;51.322;7.864;2023-03-14T11:04:39;1.37;;;0.80;;
4831;SDS011;2430;51.322;7.864;2023-03-14T11:07:12;0.80;;;0.60;;
4831;SDS011;2430;51.322;7.864;2023-03-14T11:09:41;1.00;;;0.90;;
4831;SDS011;2430;51.322;7.864;2023-03-14T11:12:16;1.53;;;0.77;;
4831;SDS011;2430;51.322;7.864;2023-03-14T11:14:50;1.40;;;1.30;;
4831;SDS011;2430;51.322;7.864;2023-03-14T11:17:20;0.90;;;0.90;;
4831;SDS011;2430;51.322;7.864;2023-03-14T11:19:54;0.87;;;0.70;;
4831;SDS011;2430;51.322;7.864;2023-03-14T11:22:24;1.00;;;0.80;;
4831;SDS011;2430;51.322;7.864;2023-03-14T11:25:01;1.80;;;0.80;;
4831;SDS011;2430;51.322;7.864;2023-03-14T11:27:33;0.70;;;0.60;;
4831;SDS011;2430;51.322;7.864;2023-03-14T11:30:03;0.70;;;0.60;;
4831;SDS011;2430;51.322;7.864;2023-03-14T11:32:35;0.77;;;0.70;;
4831;SDS011;2430;51.322;7.864;2023-03-14T11:35:03;0.93;;;0.83;;
4831;SDS011;2430;51.322;7.864;2023-03-14T11:37:31;2.07;;;0.80;;
4831;SDS011;2430;51.322;7.864;2023-03-14T11:39:59;0.80;;;0.80;;
4831;SDS011;2430;51.322;7.864;2023-03-14T11:42:28;0.80;;;0.70;;
4831;SDS011;2430;51.322;7.864;2023-03-14T11:44:55;0.80;;;0.70;;
4831;SDS011;2430;51.322;7.864;2023-03-14T11:47:24;0.80;;;0.80;;
4831;SDS011;2430;51.322;7.864;2023-03-14T11:49:52;7.33;;;0.90;;
4831;SDS011;2430;51.322;7.864;2023-03-14T11:52:20;0.77;;;0.70;;
4831;SDS011;2430;51.322;7.864;2023-03-14T11:54:49;0.90;;;0.90;;
4831;SDS011;2430;51.322;7.864;2023-03-14T11:57:18;3.30;;;1.20;;
4831;SDS011;2430;51.322;7.864;2023-03-14T11:59:47;0.80;;;0.80;;
4831;SDS011;2430;51.322;7.864;2023-03-14T12:02:17;1.10;;;0.87;;
4831;SDS011;2430;51.322;7.864;2023-03-14T12:04:51;1.10;;;1.00;;
4831;SDS011;2430;51.322;7.864;2023-03-14T12:07:20;1.03;;;0.93;;
4831;SDS011;2430;51.322;7.864;2023-03-14T12:09:49;3.13;;;0.83;;
4831;SDS011;2430;51.322;7.864;2023-03-14T12:12:16;1.10;;;1.00;;
4831;SDS011;2430;51.322;7.864;2023-03-14T12:14:44;2.27;;;1.10;;
4831;SDS011;2430;51.322;7.864;2023-03-14T12:17:17;3.23;;;1.67;;
4831;SDS011;2430;51.322;7.864;2023-03-14T12:19:44;1.10;;;1.00;;
4831;SDS011;2430;51.322;7.864;2023-03-14T12:22:28;0.93;;;0.67;;
4831;SDS011;2430;51.322;7.864;2023-03-14T12:25:00;2.40;;;0.80;;
4831;SDS011;2430;51.322;7.864;2023-03-14T12:30:24;0.80;;;0.80;;
4831;SDS011;2430;51.322;7.864;2023-03-14T12:35:52;1.33;;;1.07;;
4831;SDS011;2430;51.322;7.864;2023-03-14T12:38:25;1.83;;;1.33;;
4831;SDS011;2430;51.322;7.864;2023-03-14T12:40:56;0.97;;;0.97;;
4831;SDS011;2430;51.322;7.864;2023-03-14T12:43:24;1.37;;;1.13;;
4831;SDS011;2430;51.322;7.864;2023-03-14T12:46:06;0.90;;;0.80;;
4831;SDS011;2430;51.322;7.864;2023-03-14T12:48:33;1.33;;;0.80;;
4831;SDS011;2430;51.322;7.864;2023-03-14T12:51:00;4.20;;;0.83;;
4831;SDS011;2430;51.322;7.864;2023-03-14T12:53:40;2.30;;;0.77;;
4831;SDS011;2430;51.322;7.864;2023-03-14T12:56:12;2.10;;;1.30;;
4831;SDS011;2430;51.322;7.864;2023-03-14T12:58:44;2.13;;;1.30;;
4831;SDS011;2430;51.322;7.864;2023-03-14T13:01:14;1.00;;;0.90;;
4831;SDS011;2430;51.322;7.864;2023-03-14T13:03:43;2.67;;;0.93;;
4831;SDS011;2430;51.322;7.864;2023-03-14T13:06:45;2.57;;;1.13;;
4831;SDS011;2430;51.322;7.864;2023-03-14T13:09:01;1.30;;;1.00;;
4831;SDS011;2430;51.322;7.864;2023-03-14T13:11:47;1.80;;;1.20;;
4831;SDS011;2430;51.322;7.864;2023-03-14T13:14:13;2.27;;;1.80;;
4831;SDS011;2430;51.322;7.864;2023-03-14T13:16:40;2.33;;;1.90;;
4831;SDS011;2430;51.322;7.864;2023-03-14T13:19:09;5.07;;;1.90;;
4831;SDS011;2430;51.322;7.864;2023-03-14T13:21:39;8.03;;;1.70;;
4831;SDS011;2430;51.322;7.864;2023-03-14T13:24:07;1.53;;;1.43;;
4831;SDS011;2430;51.322;7.864;2023-03-14T13:26:35;2.53;;;1.90;;
4831;SDS011;2430;51.322;7.864;2023-03-14T13:29:09;3.60;;;2.00;;
4831;SDS011;2430;51.322;7.864;2023-03-14T13:31:43;14.00;;;6.50;;
4831;SDS011;2430;51.322;7.864;2023-03-14T13:34:09;9.80;;;6.00;;
4831;SDS011;2430;51.322;7.864;2023-03-14T13:36:36;22.20;;;8.47;;
4831;SDS011;2430;51.322;7.864;2023-03-14T13:39:03;6.77;;;4.73;;
4831;SDS011;2430;51.322;7.864;2023-03-14T13:41:30;3.63;;;1.90;;
4831;SDS011;2430;51.322;7.864;2023-03-14T13:43:58;3.90;;;1.47;;
4831;SDS011;2430;51.322;7.864;2023-03-14T13:46:28;3.60;;;1.47;;
4831;SDS011;2430;51.322;7.864;2023-03-14T13:48:55;3.30;;;1.40;;
4831;SDS011;2430;51.322;7.864;2023-03-14T13:51:22;1.17;;;1.07;;
4831;SDS011;2430;51.322;7.864;2023-03-14T13:53:50;4.73;;;1.60;;
4831;SDS011;2430;51.322;7.864;2023-03-14T13:56:17;4.47;;;1.90;;
4831;SDS011;2430;51.322;7.864;2023-03-14T13:58:44;5.93;;;1.67;;
4831;SDS011;2430;51.322;7.864;2023-03-14T14:01:12;1.70;;;1.17;;
4831;SDS011;2430;51.322;7.864;2023-03-14T14:03:41;2.70;;;1.53;;
4831;SDS011;2430;51.322;7.864;2023-03-14T14:06:10;1.93;;;1.30;;
4831;SDS011;2430;51.322;7.864;2023-03-14T14:08:39;6.97;;;1.60;;
4831;SDS011;2430;51.322;7.864;2023-03-14T14:11:06;1.63;;;1.20;;
4831;SDS011;2430;51.322;7.864;2023-03-14T14:13:33;1.73;;;1.60;;
4831;SDS011;2430;51.322;7.864;2023-03-14T14:16:01;1.30;;;1.20;;
4831;SDS011;2430;51.322;7.864;2023-03-14T14:18:28;7.60;;;1.40;;
4831;SDS011;2430;51.322;7.864;2023-03-14T14:20:56;3.77;;;1.20;;
4831;SDS011;2430;51.322;7.864;2023-03-14T14:23:24;4.50;;;1.80;;
4831;SDS011;2430;51.322;7.864;2023-03-14T14:25:54;3.83;;;2.20;;
4831;SDS011;2430;51.322;7.864;2023-03-14T14:28:23;5.00;;;1.80;;
4831;SDS011;2430;51.322;7.864;2023-03-14T14:30:58;1.53;;;1.43;;
4831;SDS011;2430;51.322;7.864;2023-03-14T14:33:25;1.80;;;1.70;;
4831;SDS011;2430;51.322;7.864;2023-03-14T14:35:52;2.43;;;1.50;;
4831;SDS011;2430;51.322;7.864;2023-03-14T14:38:21;4.23;;;2.83;;
4831;SDS011;2430;51.322;7.864;2023-03-14T14:40:48;2.90;;;1.90;;
4831;SDS011;2430;51.322;7.864;2023-03-14T14:43:16;5.57;;;1.80;;
4831;SDS011;2430;51.322;7.864;2023-03-14T14:45:43;6.00;;;1.90;;
4831;SDS011;2430;51.322;7.864;2023-03-14T14:48:11;8.03;;;2.40;;
4831;SDS011;2430;51.322;7.864;2023-03-14T14:50:39;2.17;;;1.63;;
4831;SDS011;2430;51.322;7.864;2023-03-14T14:53:21;5.33;;;2.30;;
4831;SDS011;2430;51.322;7.864;2023-03-14T14:55:49;7.33;;;1.60;;
4831;SDS011;2430;51.322;7.864;2023-03-14T14:58:18;6.53;;;1.50;;
4831;SDS011;2430;51.322;7.864;2023-03-14T15:00:49;5.80;;;2.67;;
4831;SDS011;2430;51.322;7.864;2023-03-14T15:03:16;3.57;;;1.73;;
4831;SDS011;2430;51.322;7.864;2023-03-14T15:05:43;4.60;;;2.53;;
4831;SDS011;2430;51.322;7.864;2023-03-14T15:08:11;3.13;;;2.30;;
4831;SDS011;2430;51.322;7.864;2023-03-14T15:10:39;4.30;;;1.80;;
4831;SDS011;2430;51.322;7.864;2023-03-14T15:13:05;7.83;;;1.80;;
4831;SDS011;2430;51.322;7.864;2023-03-14T15:15:31;5.03;;;1.80;;
4831;SDS011;2430;51.322;7.864;2023-03-14T15:17:59;3.00;;;1.70;;
4831;SDS011;2430;51.322;7.864;2023-03-14T15:20:26;5.77;;;2.03;;
4831;SDS011;2430;51.322;7.864;2023-03-14T15:22:55;1.63;;;1.53;;
4831;SDS011;2430;51.322;7.864;2023-03-14T15:25:22;3.00;;;1.60;;
4831;SDS011;2430;51.322;7.864;2023-03-14T15:27:50;1.23;;;1.03;;